South Chase, Wisconsin
Current Conditions -  °F | °C
As of 11:53 PM on Wednesday 22 Oct 2014 (Local Time) from KGRB Reporting Station
Clear Clear  
Wind Chill: 33°   Ceiling: Unl
Heat Index: 37°   Visibility: 8mi
Dew Point: 35°   Wind: 5mph
Humidity: 93%   Direction: 180°S
Pressure: 30.23"   Gusts: NA
Location:  44.6594°N, 88.2945°W
Report Text: KGRB 230453Z AUTO 18004KT 8SM CLR 03/02 A3023 RMK AO2 SLP244 T00280017
Loading
Personal Weather Stations






























Interactive Weather Map
Tropical Storm Tracking
New forecast layout! Learn more

10-Day Weather Forecast

Advertisements
Track Severe Weather on mobile